createdAt,value
2019-05-19T00:00:14.636Z,11.78
2019-05-19T00:01:17.734Z,11.83
2019-05-19T00:02:20.836Z,12.70
2019-05-19T00:03:23.745Z,11.80
2019-05-19T00:04:26.684Z,12.13
2019-05-19T00:05:29.587Z,12.60
2019-05-19T00:06:32.657Z,12.10
2019-05-19T00:07:35.582Z,12.65
2019-05-19T00:08:38.502Z,12.45
2019-05-19T00:09:41.460Z,11.83
2019-05-19T00:10:44.367Z,12.07
2019-05-19T00:11:47.348Z,12.53
2019-05-19T00:12:50.222Z,12.68
2019-05-19T00:13:53.125Z,12.63
2019-05-19T00:14:56.142Z,13.70
2019-05-19T00:15:59.041Z,12.30
2019-05-19T00:17:02.040Z,12.00
2019-05-19T00:18:05.002Z,13.80
2019-05-19T00:19:07.915Z,13.28
2019-05-19T00:20:11.039Z,13.22
2019-05-19T00:21:13.981Z,12.40
2019-05-19T00:22:17.025Z,12.30
2019-05-19T00:23:19.948Z,13.53
2019-05-19T00:24:23.007Z,12.82
2019-05-19T00:25:25.933Z,13.65
2019-05-19T00:26:28.821Z,14.05
2019-05-19T00:27:31.786Z,12.45
2019-05-19T00:28:34.716Z,12.55
2019-05-19T00:29:37.628Z,12.60
2019-05-19T00:30:40.612Z,12.82
2019-05-19T00:31:43.514Z,12.70
2019-05-19T00:32:46.505Z,12.82
2019-05-19T00:33:49.412Z,13.45
2019-05-19T00:34:52.313Z,12.23
2019-05-19T00:35:55.240Z,11.55
2019-05-19T00:36:58.117Z,12.20
2019-05-19T00:38:01.077Z,13.43
2019-05-19T00:39:05.352Z,13.72
2019-05-19T00:40:08.478Z,13.83
2019-05-19T00:41:11.380Z,13.55
2019-05-19T00:42:14.373Z,13.13
2019-05-19T00:43:17.268Z,14.20
2019-05-19T00:44:20.194Z,11.90
2019-05-19T00:45:23.177Z,13.40
2019-05-19T00:46:26.083Z,12.07
2019-05-19T00:47:29.030Z,12.30
2019-05-19T00:48:32.013Z,12.43
2019-05-19T00:49:41.481Z,12.78
2019-05-19T00:50:40.701Z,12.53
2019-05-19T00:51:43.905Z,12.53
2019-05-19T00:52:46.978Z,12.78
2019-05-19T00:53:49.809Z,11.68
2019-05-19T00:54:52.775Z,12.43
2019-05-19T00:55:55.985Z,13.08
2019-05-19T00:56:59.280Z,12.40
2019-05-19T00:58:02.897Z,11.88
2019-05-19T00:59:06.778Z,12.68
2019-05-19T01:00:09.792Z,11.78
2019-05-19T01:01:12.793Z,12.18
2019-05-19T01:02:15.839Z,11.78
2019-05-19T01:03:18.756Z,12.05
2019-05-19T01:04:21.683Z,11.95
2019-05-19T01:05:24.617Z,12.73
2019-05-19T01:06:27.544Z,12.20
2019-05-19T01:07:30.500Z,12.75
2019-05-19T01:08:33.432Z,12.33
2019-05-19T01:09:37.401Z,11.70
2019-05-19T01:10:40.319Z,12.82
2019-05-19T01:11:43.217Z,13.20
2019-05-19T01:12:46.223Z,12.55
2019-05-19T01:13:50.124Z,12.50
2019-05-19T01:14:53.118Z,12.75
2019-05-19T01:15:57.022Z,13.28
2019-05-19T01:16:59.930Z,12.33
2019-05-19T01:18:03.899Z,11.60
2019-05-19T01:19:06.852Z,12.60
2019-05-19T01:20:10.172Z,13.22
2019-05-19T01:21:13.529Z,12.60
2019-05-19T01:22:16.445Z,12.95
2019-05-19T01:23:20.377Z,13.05
2019-05-19T01:24:23.294Z,13.70
2019-05-19T01:25:26.223Z,13.32
2019-05-19T01:26:29.216Z,12.78
2019-05-19T01:27:32.071Z,12.20
2019-05-19T01:28:35.016Z,12.70
2019-05-19T01:29:37.977Z,13.13
2019-05-19T01:30:40.906Z,12.35
2019-05-19T01:31:43.827Z,11.88
2019-05-19T01:32:46.781Z,11.65
2019-05-19T01:33:49.998Z,12.50
2019-05-19T01:34:53.208Z,11.63
2019-05-19T01:35:56.317Z,12.37
2019-05-19T01:36:59.210Z,11.78
2019-05-19T01:38:03.130Z,11.83
2019-05-19T01:39:06.234Z,12.63
2019-05-19T01:40:09.266Z,10.98
2019-05-19T01:41:12.307Z,11.38
2019-05-19T01:42:15.168Z,12.73
2019-05-19T01:43:18.126Z,12.18
2019-05-19T01:44:21.081Z,12.70
2019-05-19T01:45:24.848Z,12.40
2019-05-19T01:46:28.157Z,12.75
2019-05-19T01:47:31.285Z,12.95
2019-05-19T01:48:34.271Z,12.73
2019-05-19T01:49:37.193Z,13.45
2019-05-19T01:50:40.127Z,12.50
2019-05-19T01:51:43.118Z,12.70
2019-05-19T01:52:46.141Z,13.18
2019-05-19T01:53:49.081Z,13.62
2019-05-19T01:54:51.975Z,13.00
2019-05-19T01:55:54.913Z,12.95
2019-05-19T01:56:57.902Z,13.08
2019-05-19T01:58:01.068Z,12.20
2019-05-19T01:59:04.129Z,12.07
2019-05-19T02:00:08.937Z,12.47
2019-05-19T02:01:11.925Z,13.25
2019-05-19T02:02:14.862Z,12.03
2019-05-19T02:03:17.821Z,11.97
2019-05-19T02:04:20.851Z,12.23
2019-05-19T02:05:23.765Z,11.78
2019-05-19T02:06:26.737Z,11.88
2019-05-19T02:07:30.052Z,12.98
2019-05-19T02:08:32.933Z,11.93
2019-05-19T02:09:35.928Z,11.75
2019-05-19T02:10:38.833Z,12.90
2019-05-19T02:11:41.830Z,12.65
2019-05-19T02:12:44.767Z,11.45
2019-05-19T02:13:47.698Z,11.70
2019-05-19T02:14:50.678Z,12.20
2019-05-19T02:15:53.597Z,11.95
2019-05-19T02:16:56.654Z,12.30
2019-05-19T02:17:59.682Z,13.48
2019-05-19T02:19:02.805Z,13.60
2019-05-19T02:20:06.176Z,11.88
2019-05-19T02:21:09.100Z,12.40
2019-05-19T02:22:12.359Z,12.37
2019-05-19T02:23:15.414Z,12.73
2019-05-19T02:24:18.344Z,12.55
2019-05-19T02:25:21.230Z,11.53
2019-05-19T02:26:24.243Z,12.15
2019-05-19T02:27:27.158Z,13.38
2019-05-19T02:28:30.142Z,13.45
2019-05-19T02:29:33.078Z,12.78
2019-05-19T02:30:36.024Z,12.53
2019-05-19T02:31:39.082Z,12.23
2019-05-19T02:32:42.010Z,13.13
2019-05-19T02:33:45.917Z,12.95
2019-05-19T02:34:48.867Z,12.65
2019-05-19T02:35:51.734Z,12.70
2019-05-19T02:36:55.285Z,13.55
2019-05-19T02:37:58.370Z,12.82
2019-05-19T02:39:01.468Z,12.00
2019-05-19T02:40:06.843Z,11.55
2019-05-19T02:41:11.822Z,11.95
2019-05-19T02:42:20.571Z,11.60
2019-05-19T02:43:25.089Z,12.80
2019-05-19T02:44:29.256Z,13.32
2019-05-19T02:45:34.974Z,11.53
2019-05-19T02:46:39.301Z,13.25
2019-05-19T02:47:44.133Z,11.30
2019-05-19T02:48:48.071Z,13.35
2019-05-19T02:49:52.397Z,12.15
2019-05-19T02:50:59.157Z,13.08
2019-05-19T02:52:02.970Z,12.50
2019-05-19T02:53:07.528Z,12.25
2019-05-19T02:54:11.632Z,12.82
2019-05-19T02:55:15.388Z,12.63
2019-05-19T02:56:18.598Z,11.68
2019-05-19T02:57:21.843Z,13.05
2019-05-19T02:58:25.303Z,13.58
2019-05-19T02:59:30.414Z,12.00
2019-05-19T03:00:37.798Z,12.63
2019-05-19T03:02:00.360Z,12.58
2019-05-19T03:03:03.306Z,12.73
2019-05-19T03:04:07.210Z,11.70
2019-05-19T03:05:10.495Z,12.03
2019-05-19T03:06:14.426Z,12.65
2019-05-19T03:07:17.353Z,11.35
2019-05-19T03:08:20.287Z,13.35
2019-05-19T03:09:23.228Z,12.28
2019-05-19T03:10:26.166Z,11.28
2019-05-19T03:11:32.051Z,12.23
2019-05-19T03:12:35.990Z,13.00
2019-05-19T03:13:38.935Z,12.40
2019-05-19T03:14:41.994Z,12.40
2019-05-19T03:15:45.929Z,12.13
2019-05-19T03:16:48.852Z,12.28
2019-05-19T03:17:51.764Z,12.60
2019-05-19T03:18:54.707Z,12.95
2019-05-19T03:19:57.614Z,12.10
2019-05-19T03:21:10.349Z,12.70
2019-05-19T03:22:05.241Z,12.30
2019-05-19T03:23:08.152Z,12.40
2019-05-19T03:24:11.285Z,12.07
2019-05-19T03:25:14.228Z,12.53
2019-05-19T03:26:17.141Z,13.18
2019-05-19T03:27:20.172Z,13.58
2019-05-19T03:28:23.166Z,12.63
2019-05-19T03:29:31.258Z,12.50
2019-05-19T03:30:52.276Z,11.60
2019-05-19T03:32:11.268Z,13.05
2019-05-19T03:33:09.118Z,13.08
2019-05-19T03:34:12.427Z,12.55
2019-05-19T03:35:15.391Z,12.37
2019-05-19T03:36:18.329Z,12.85
2019-05-19T03:37:21.270Z,12.60
2019-05-19T03:38:24.818Z,12.50
2019-05-19T03:39:27.890Z,13.18
2019-05-19T03:40:30.830Z,12.47
2019-05-19T03:41:33.739Z,12.63
2019-05-19T03:42:36.642Z,11.97
2019-05-19T03:43:39.668Z,12.55
2019-05-19T03:44:42.599Z,11.73
2019-05-19T03:45:45.716Z,12.88
2019-05-19T03:46:48.607Z,12.03
2019-05-19T03:47:51.550Z,12.15
2019-05-19T03:48:54.457Z,12.68
2019-05-19T03:49:58.375Z,12.43
2019-05-19T03:51:01.370Z,11.43
2019-05-19T03:52:04.287Z,12.40
2019-05-19T03:53:07.219Z,14.18
2019-05-19T03:54:10.264Z,14.58
2019-05-19T03:55:13.429Z,12.47
2019-05-19T03:56:16.374Z,11.65
2019-05-19T03:57:19.263Z,12.25
2019-05-19T03:58:22.179Z,11.43
2019-05-19T03:59:25.159Z,12.28
2019-05-19T04:00:28.083Z,12.05
2019-05-19T04:01:31.361Z,11.55
2019-05-19T04:02:36.940Z,10.78
2019-05-19T04:03:39.783Z,12.25
2019-05-19T04:04:42.700Z,11.28
2019-05-19T04:05:45.655Z,11.70
2019-05-19T04:06:48.592Z,12.25
2019-05-19T04:07:51.536Z,13.00
2019-05-19T04:08:54.470Z,11.43
2019-05-19T04:09:57.510Z,11.95
2019-05-19T04:11:00.486Z,11.50
2019-05-19T04:12:04.426Z,11.85
2019-05-19T04:13:07.486Z,11.78
2019-05-19T04:14:10.429Z,12.15
2019-05-19T04:15:13.451Z,12.60
2019-05-19T04:16:16.363Z,11.93
2019-05-19T04:17:19.303Z,11.38
2019-05-19T04:18:22.260Z,11.60
2019-05-19T04:19:25.238Z,12.00
2019-05-19T04:20:28.149Z,12.18
2019-05-19T04:21:47.534Z,12.75
2019-05-19T04:22:35.765Z,12.80
2019-05-19T04:23:38.863Z,12.15
2019-05-19T04:24:44.222Z,13.08
2019-05-19T04:25:47.169Z,13.13
2019-05-19T04:26:50.089Z,14.28
2019-05-19T04:27:53.029Z,13.75
2019-05-19T04:28:56.059Z,12.85
2019-05-19T04:29:59.025Z,12.13
2019-05-19T04:31:01.959Z,12.23
2019-05-19T04:32:04.870Z,12.73
2019-05-19T04:33:07.820Z,12.93
2019-05-19T04:34:10.762Z,13.08
2019-05-19T04:35:13.850Z,13.05
2019-05-19T04:36:16.762Z,12.98
2019-05-19T04:37:19.668Z,13.28
2019-05-19T04:38:22.680Z,13.75
2019-05-19T04:39:25.678Z,12.45
2019-05-19T04:40:28.577Z,13.03
2019-05-19T04:41:31.471Z,12.13
2019-05-19T04:42:34.407Z,12.07
2019-05-19T04:43:37.203Z,12.43
2019-05-19T04:44:40.129Z,12.58
2019-05-19T04:45:43.077Z,12.82
2019-05-19T04:46:46.121Z,12.45
2019-05-19T04:47:49.014Z,12.75
2019-05-19T04:48:51.936Z,12.40
2019-05-19T04:49:54.894Z,12.37
2019-05-19T04:50:58.902Z,12.55
2019-05-19T04:52:07.155Z,11.97
2019-05-19T04:53:07.662Z,12.85
2019-05-19T04:54:10.565Z,12.80
2019-05-19T04:55:13.701Z,12.03
2019-05-19T04:56:19.601Z,11.33
2019-05-19T04:57:21.470Z,10.88
2019-05-19T04:58:24.390Z,12.13
2019-05-19T04:59:27.297Z,11.55
2019-05-19T05:00:30.237Z,12.58
2019-05-19T05:01:33.224Z,12.50
2019-05-19T05:02:36.192Z,12.58
2019-05-19T05:03:39.138Z,12.23
2019-05-19T05:04:42.069Z,12.03
2019-05-19T05:05:46.169Z,11.18
2019-05-19T05:06:49.111Z,12.35
2019-05-19T05:07:52.137Z,12.90
2019-05-19T05:08:55.322Z,11.78
2019-05-19T05:09:58.297Z,12.47
2019-05-19T05:11:01.265Z,12.10
2019-05-19T05:12:04.286Z,12.20
2019-05-19T05:13:07.194Z,11.88
2019-05-19T05:14:10.143Z,10.88
2019-05-19T05:15:13.373Z,11.95
2019-05-19T05:16:16.296Z,12.45
2019-05-19T05:17:19.217Z,10.95
2019-05-19T05:18:22.147Z,11.50
2019-05-19T05:19:25.089Z,11.20
2019-05-19T05:20:28.001Z,11.80
2019-05-19T05:21:30.956Z,11.53
2019-05-19T05:22:34.006Z,11.48
2019-05-19T05:23:36.909Z,12.63
2019-05-19T05:24:39.831Z,13.15
2019-05-19T05:25:42.718Z,12.55
2019-05-19T05:26:45.764Z,12.82
2019-05-19T05:27:48.697Z,13.60
2019-05-19T05:28:51.586Z,11.78
2019-05-19T05:29:54.468Z,12.53
2019-05-19T05:30:57.408Z,15.08
2019-05-19T05:32:00.404Z,12.37
2019-05-19T05:33:03.347Z,12.95
2019-05-19T05:34:06.239Z,11.75
2019-05-19T05:35:09.188Z,11.83
2019-05-19T05:36:14.934Z,11.80
2019-05-19T05:37:17.941Z,12.07
2019-05-19T05:38:20.842Z,11.83
2019-05-19T05:39:23.759Z,11.43
2019-05-19T05:40:26.652Z,12.58
2019-05-19T05:41:29.576Z,11.33
2019-05-19T05:42:32.604Z,12.45
2019-05-19T05:43:35.502Z,12.70
2019-05-19T05:44:38.413Z,12.33
2019-05-19T05:45:41.335Z,12.43
2019-05-19T05:46:44.260Z,12.20
2019-05-19T05:47:48.227Z,11.30
2019-05-19T05:48:51.105Z,11.88
2019-05-19T05:49:54.000Z,10.80
2019-05-19T05:50:56.930Z,11.85
2019-05-19T05:51:59.865Z,10.95
2019-05-19T05:53:02.813Z,11.48
2019-05-19T05:54:05.726Z,12.60
2019-05-19T05:55:08.828Z,11.93
2019-05-19T05:56:11.750Z,10.93
2019-05-19T05:57:14.762Z,12.05
2019-05-19T05:58:17.754Z,11.78
2019-05-19T05:59:20.694Z,12.28
2019-05-19T06:00:23.723Z,11.53
2019-05-19T06:01:26.645Z,11.03
2019-05-19T06:02:29.549Z,10.82
2019-05-19T06:03:32.807Z,11.68
2019-05-19T06:04:35.758Z,11.68
2019-05-19T06:05:38.754Z,11.43
2019-05-19T06:06:41.697Z,11.03
2019-05-19T06:07:44.642Z,10.78
2019-05-19T06:08:50.553Z,10.95
2019-05-19T06:09:53.490Z,10.05
2019-05-19T06:10:56.409Z,10.18
2019-05-19T06:11:59.537Z,10.80
2019-05-19T06:13:02.465Z,9.70
2019-05-19T06:14:05.496Z,9.78
2019-05-19T06:15:08.737Z,9.83
2019-05-19T06:16:11.623Z,10.03
2019-05-19T06:17:14.552Z,10.20
2019-05-19T06:18:17.562Z,10.58
2019-05-19T06:19:20.542Z,10.00
2019-05-19T06:20:23.653Z,9.53
2019-05-19T06:21:27.066Z,10.35
2019-05-19T06:22:29.966Z,9.85
2019-05-19T06:23:32.925Z,8.80
2019-05-19T06:24:36.971Z,9.80
2019-05-19T06:25:39.897Z,9.65
2019-05-19T06:26:42.885Z,10.20
2019-05-19T06:27:45.945Z,9.83
2019-05-19T06:28:48.902Z,9.98
2019-05-19T06:29:51.805Z,9.70
2019-05-19T06:30:54.735Z,9.65
2019-05-19T06:32:02.023Z,11.48
2019-05-19T06:33:05.075Z,10.58
2019-05-19T06:34:08.030Z,11.12
2019-05-19T06:35:11.569Z,11.03
2019-05-19T06:36:14.514Z,11.25
2019-05-19T06:37:17.452Z,10.25
2019-05-19T06:38:20.445Z,10.18
2019-05-19T06:39:23.370Z,11.33
2019-05-19T06:40:26.299Z,9.93
2019-05-19T06:41:30.169Z,11.05
2019-05-19T06:42:33.153Z,11.18
2019-05-19T06:43:36.229Z,10.48
2019-05-19T06:44:39.167Z,9.90
2019-05-19T06:45:42.089Z,11.50
2019-05-19T06:46:45.154Z,11.65
2019-05-19T06:47:48.049Z,12.58
2019-05-19T06:48:50.953Z,13.08
2019-05-19T06:49:54.006Z,12.73
2019-05-19T06:50:56.944Z,13.75
2019-05-19T06:51:59.969Z,13.15
2019-05-19T06:53:13.553Z,15.75
2019-05-19T06:54:07.676Z,14.73
2019-05-19T06:55:13.143Z,15.85
2019-05-19T06:56:16.053Z,16.17
2019-05-19T06:57:20.042Z,15.80
2019-05-19T06:58:23.072Z,15.80
2019-05-19T06:59:25.995Z,17.70
2019-05-19T07:00:28.994Z,18.12
2019-05-19T07:01:31.870Z,18.70
2019-05-19T07:02:34.765Z,18.02
2019-05-19T07:03:38.754Z,18.48
2019-05-19T07:04:41.789Z,17.55
2019-05-19T07:05:44.845Z,18.00
2019-05-19T07:06:47.865Z,19.48
2019-05-19T07:07:50.748Z,19.67
2019-05-19T07:08:53.674Z,20.75
2019-05-19T07:09:58.830Z,19.67
2019-05-19T07:11:01.309Z,18.92
2019-05-19T07:12:04.505Z,21.33
2019-05-19T07:13:07.546Z,19.65
2019-05-19T07:14:10.742Z,19.05
2019-05-19T07:15:14.779Z,19.77
2019-05-19T07:16:17.805Z,19.10
2019-05-19T07:17:20.779Z,19.20
2019-05-19T07:18:23.741Z,20.27
2019-05-19T07:19:26.645Z,18.90
2019-05-19T07:20:29.570Z,19.65
2019-05-19T07:21:32.588Z,19.95
2019-05-19T07:22:37.543Z,19.85
2019-05-19T07:23:40.366Z,19.27
2019-05-19T07:24:43.279Z,20.27
2019-05-19T07:25:46.263Z,21.20
2019-05-19T07:26:50.202Z,20.70
2019-05-19T07:27:53.241Z,20.23
2019-05-19T07:28:58.935Z,20.43
2019-05-19T07:30:01.465Z,21.77
2019-05-19T07:31:04.432Z,19.48
2019-05-19T07:32:07.422Z,22.02
2019-05-19T07:33:10.323Z,21.17
2019-05-19T07:34:13.243Z,22.37
2019-05-19T07:35:16.377Z,23.10
2019-05-19T07:36:19.427Z,20.50
2019-05-19T07:37:22.333Z,21.20
2019-05-19T07:38:25.279Z,21.75
2019-05-19T07:39:28.225Z,21.62
2019-05-19T07:40:35.797Z,21.62
2019-05-19T07:41:39.082Z,20.37
2019-05-19T07:42:42.100Z,20.82
2019-05-19T07:43:45.342Z,21.25
2019-05-19T07:44:48.266Z,20.95
2019-05-19T07:45:51.185Z,20.82
2019-05-19T07:46:54.110Z,21.37
2019-05-19T07:47:57.065Z,19.80
2019-05-19T07:49:00.062Z,20.37
2019-05-19T07:50:03.335Z,20.43
2019-05-19T07:51:06.237Z,21.05
2019-05-19T07:52:09.141Z,21.23
2019-05-19T07:53:12.216Z,19.82
2019-05-19T07:54:15.113Z,20.97
2019-05-19T07:55:18.012Z,21.40
2019-05-19T07:56:20.928Z,22.13
2019-05-19T07:57:23.865Z,21.20
2019-05-19T07:58:26.982Z,21.65
2019-05-19T07:59:30.301Z,21.75
2019-05-19T08:00:33.342Z,21.95
2019-05-19T08:01:36.345Z,21.02
2019-05-19T08:02:42.373Z,20.68
2019-05-19T08:03:45.441Z,20.30
2019-05-19T08:04:48.394Z,21.45
2019-05-19T08:05:51.340Z,22.48
2019-05-19T08:06:54.304Z,19.65
2019-05-19T08:07:57.365Z,22.25
2019-05-19T08:09:01.362Z,20.43
2019-05-19T08:10:04.939Z,18.45
2019-05-19T08:11:07.909Z,18.42
2019-05-19T08:12:10.935Z,16.82
2019-05-19T08:13:13.882Z,18.57
2019-05-19T08:14:16.822Z,18.75
2019-05-19T08:15:19.829Z,18.80
2019-05-19T08:16:22.724Z,19.12
2019-05-19T08:17:26.692Z,18.70
2019-05-19T08:18:29.674Z,17.65
2019-05-19T08:19:32.611Z,17.35
2019-05-19T08:20:35.590Z,18.82
2019-05-19T08:21:38.513Z,17.92
2019-05-19T08:22:41.585Z,17.52
2019-05-19T08:23:59.214Z,18.17
2019-05-19T08:24:49.302Z,16.87
2019-05-19T08:25:52.223Z,18.07
2019-05-19T08:26:57.691Z,17.70
2019-05-19T08:28:08.290Z,18.85
2019-05-19T08:29:05.455Z,17.60
2019-05-19T08:30:09.125Z,17.55
2019-05-19T08:31:12.012Z,18.15
2019-05-19T08:32:14.944Z,18.90
2019-05-19T08:33:18.567Z,18.73
2019-05-19T08:34:21.505Z,20.08
2019-05-19T08:35:24.449Z,19.77
2019-05-19T08:36:27.509Z,18.10
2019-05-19T08:37:31.523Z,18.02
2019-05-19T08:38:34.433Z,19.80
2019-05-19T08:39:37.358Z,20.43
2019-05-19T08:40:40.294Z,19.80
2019-05-19T08:41:43.259Z,21.12
2019-05-19T08:42:46.182Z,21.25
2019-05-19T08:43:49.158Z,22.85
2019-05-19T08:44:52.086Z,21.90
2019-05-19T08:45:55.176Z,23.57
2019-05-19T08:46:58.103Z,22.75
2019-05-19T08:48:01.058Z,19.82
2019-05-19T08:49:04.026Z,22.00
2019-05-19T08:50:06.970Z,22.98
2019-05-19T08:51:09.955Z,22.07
2019-05-19T08:52:13.282Z,23.18
2019-05-19T08:53:16.614Z,23.25
2019-05-19T08:54:19.759Z,21.80
2019-05-19T08:55:22.713Z,23.22
2019-05-19T08:56:25.685Z,23.35
2019-05-19T08:57:28.708Z,23.85
2019-05-19T08:58:31.641Z,22.70
2019-05-19T08:59:34.578Z,21.65
2019-05-19T09:00:38.529Z,22.70
2019-05-19T09:01:41.698Z,21.00
2019-05-19T09:02:44.688Z,22.27
2019-05-19T09:03:47.631Z,23.00
2019-05-19T09:04:50.672Z,22.67
2019-05-19T09:05:53.636Z,21.97
2019-05-19T09:06:56.669Z,19.90
2019-05-19T09:07:59.583Z,21.25
2019-05-19T09:09:04.125Z,21.15
2019-05-19T09:10:07.274Z,21.50
2019-05-19T09:11:10.225Z,20.85
2019-05-19T09:12:13.200Z,20.75
2019-05-19T09:13:16.121Z,21.90
2019-05-19T09:14:19.301Z,21.35
2019-05-19T09:15:22.327Z,19.95
2019-05-19T09:16:25.264Z,21.10
2019-05-19T09:17:28.257Z,22.85
2019-05-19T09:18:31.191Z,22.77
2019-05-19T09:19:34.150Z,22.22
2019-05-19T09:20:37.122Z,23.95
2019-05-19T09:21:40.073Z,22.37
2019-05-19T09:22:43.044Z,21.10
2019-05-19T09:23:45.929Z,22.45
2019-05-19T09:24:48.862Z,21.02
2019-05-19T09:25:51.826Z,22.37
2019-05-19T09:26:54.826Z,22.42
2019-05-19T09:27:57.812Z,22.70
2019-05-19T09:29:01.656Z,21.52
2019-05-19T09:30:05.905Z,21.30
2019-05-19T09:31:08.921Z,23.32
2019-05-19T09:32:11.846Z,22.50
2019-05-19T09:33:14.762Z,21.73
2019-05-19T09:34:17.697Z,22.98
2019-05-19T09:35:20.716Z,22.90
2019-05-19T09:36:23.653Z,22.22
2019-05-19T09:37:26.701Z,21.48
2019-05-19T09:38:29.632Z,22.25
2019-05-19T09:39:33.537Z,22.67
2019-05-19T09:40:36.442Z,23.95
2019-05-19T09:41:39.375Z,23.07
2019-05-19T09:42:42.261Z,23.25
2019-05-19T09:43:45.201Z,23.62
2019-05-19T09:44:48.138Z,21.73
2019-05-19T09:45:51.057Z,22.42
2019-05-19T09:46:54.054Z,22.52
2019-05-19T09:47:56.949Z,20.97
2019-05-19T09:49:17.589Z,21.45
2019-05-19T09:50:20.648Z,20.60
2019-05-19T09:51:23.644Z,21.30
2019-05-19T09:52:26.601Z,20.12
2019-05-19T09:53:29.615Z,21.15
2019-05-19T09:54:44.194Z,20.55
2019-05-19T09:55:37.399Z,21.80
2019-05-19T09:56:40.361Z,20.25
2019-05-19T09:57:43.319Z,18.57
2019-05-19T09:58:46.266Z,20.40
2019-05-19T09:59:49.201Z,20.85
2019-05-19T10:00:52.127Z,21.52
2019-05-19T10:01:56.178Z,18.17
2019-05-19T10:02:59.093Z,18.12
2019-05-19T10:04:02.347Z,18.05
2019-05-19T10:05:05.569Z,17.45
2019-05-19T10:06:08.581Z,17.57
2019-05-19T10:07:11.630Z,18.92
2019-05-19T10:08:14.694Z,18.50
2019-05-19T10:09:24.004Z,18.17
2019-05-19T10:10:44.174Z,13.90
2019-05-19T10:12:02.193Z,12.63
2019-05-19T10:13:05.144Z,12.75
2019-05-19T10:14:08.457Z,11.70
2019-05-19T10:15:12.648Z,10.98
2019-05-19T10:16:15.579Z,10.80
2019-05-19T10:17:18.696Z,11.48
2019-05-19T10:18:21.723Z,11.00
2019-05-19T10:19:24.724Z,10.43
2019-05-19T10:20:27.670Z,10.00
2019-05-19T10:21:30.583Z,11.95
2019-05-19T10:22:33.888Z,10.50
2019-05-19T10:23:36.938Z,9.58
2019-05-19T10:24:39.929Z,9.25
2019-05-19T10:25:42.867Z,9.73
2019-05-19T10:26:45.949Z,10.10
2019-05-19T10:27:49.022Z,11.38
2019-05-19T10:28:51.937Z,10.08
2019-05-19T10:29:54.884Z,9.43
2019-05-19T10:30:58.029Z,9.65
2019-05-19T10:32:00.964Z,9.95
2019-05-19T10:33:03.930Z,10.30
2019-05-19T10:34:06.918Z,9.83
2019-05-19T10:35:10.041Z,9.70
2019-05-19T10:36:12.954Z,9.85
2019-05-19T10:37:15.879Z,9.53
2019-05-19T10:38:18.953Z,9.50
2019-05-19T10:39:21.926Z,9.10
2019-05-19T10:40:24.920Z,8.68
2019-05-19T10:41:27.906Z,8.95
2019-05-19T10:42:30.885Z,8.33
2019-05-19T10:43:33.793Z,9.63
2019-05-19T10:44:36.806Z,8.78
2019-05-19T10:45:39.785Z,8.28
2019-05-19T10:46:43.722Z,7.28
2019-05-19T10:47:46.681Z,7.37
2019-05-19T10:48:49.634Z,8.03
2019-05-19T10:49:52.609Z,7.10
2019-05-19T10:50:55.606Z,7.37
2019-05-19T10:51:58.548Z,7.35
2019-05-19T10:53:01.585Z,6.60
2019-05-19T10:54:04.530Z,7.05
2019-05-19T10:55:08.689Z,6.75
2019-05-19T10:56:11.676Z,7.92
2019-05-19T10:57:14.597Z,7.62
2019-05-19T10:58:17.687Z,7.22
2019-05-19T10:59:20.610Z,6.80
2019-05-19T11:00:23.633Z,7.90
2019-05-19T11:01:26.642Z,6.80
2019-05-19T11:02:29.743Z,7.05
2019-05-19T11:03:32.733Z,6.70
2019-05-19T11:04:35.657Z,7.20
2019-05-19T11:05:38.628Z,5.85
2019-05-19T11:06:41.576Z,7.15
2019-05-19T11:07:44.510Z,6.72
2019-05-19T11:08:47.497Z,6.37
2019-05-19T11:09:50.754Z,6.92
2019-05-19T11:10:53.686Z,6.97
2019-05-19T11:11:56.807Z,7.58
2019-05-19T11:12:59.700Z,6.95
2019-05-19T11:14:02.773Z,7.03
2019-05-19T11:15:06.063Z,7.53
2019-05-19T11:16:08.985Z,6.50
2019-05-19T11:17:11.969Z,7.37
2019-05-19T11:18:17.876Z,6.83
2019-05-19T11:19:20.840Z,6.80
2019-05-19T11:20:23.774Z,6.10
2019-05-19T11:21:26.688Z,6.50
2019-05-19T11:22:29.658Z,6.05
2019-05-19T11:23:32.609Z,5.92
2019-05-19T11:24:35.531Z,6.92
2019-05-19T11:25:50.692Z,6.35
2019-05-19T11:26:43.306Z,6.12
2019-05-19T11:27:46.301Z,6.28
2019-05-19T11:28:49.298Z,6.78
2019-05-19T11:29:52.314Z,7.42
2019-05-19T11:30:56.527Z,7.45
2019-05-19T11:31:59.465Z,7.35
2019-05-19T11:33:02.446Z,7.35
2019-05-19T11:34:05.479Z,6.80
2019-05-19T11:35:08.609Z,7.17
2019-05-19T11:36:11.599Z,6.28
2019-05-19T11:37:15.556Z,6.80
2019-05-19T11:38:18.684Z,6.55
2019-05-19T11:39:21.607Z,5.95
2019-05-19T11:40:24.663Z,6.55
2019-05-19T11:41:27.732Z,5.90
2019-05-19T11:42:30.681Z,4.40
2019-05-19T11:43:34.657Z,4.10
2019-05-19T11:44:37.590Z,4.80
2019-05-19T11:45:40.828Z,4.50
2019-05-19T11:46:43.762Z,4.63
2019-05-19T11:47:46.721Z,4.93
2019-05-19T11:48:49.746Z,5.10
2019-05-19T11:49:52.665Z,4.37
2019-05-19T11:50:55.715Z,4.57
2019-05-19T11:51:58.845Z,4.47
2019-05-19T11:53:01.998Z,4.30
2019-05-19T11:54:04.967Z,4.70
2019-05-19T11:55:08.786Z,3.90
2019-05-19T11:56:11.813Z,4.40
2019-05-19T11:57:14.727Z,4.13
2019-05-19T11:58:17.686Z,4.47
2019-05-19T11:59:20.639Z,4.70
2019-05-19T12:00:23.588Z,4.87
2019-05-19T12:01:26.516Z,4.97
2019-05-19T12:02:29.427Z,5.10
2019-05-19T12:03:32.575Z,5.10
2019-05-19T12:04:36.206Z,5.20
2019-05-19T12:05:39.205Z,5.33
2019-05-19T12:06:42.178Z,5.40
2019-05-19T12:07:45.096Z,4.90
2019-05-19T12:08:48.057Z,4.47
2019-05-19T12:09:51.031Z,4.80
2019-05-19T12:10:54.418Z,4.70
2019-05-19T12:11:57.324Z,5.37
2019-05-19T12:13:00.251Z,4.53
2019-05-19T12:14:03.239Z,5.23
2019-05-19T12:15:08.469Z,4.63
2019-05-19T12:16:11.353Z,4.80
2019-05-19T12:17:14.317Z,4.87
2019-05-19T12:18:17.430Z,4.77
2019-05-19T12:19:20.424Z,4.57
2019-05-19T12:20:23.401Z,4.50
2019-05-19T12:21:26.307Z,4.33
2019-05-19T12:22:29.215Z,4.43
2019-05-19T12:23:32.113Z,8.97
2019-05-19T12:24:35.180Z,4.93
2019-05-19T12:25:38.287Z,4.47
2019-05-19T12:26:41.150Z,4.30
2019-05-19T12:27:44.224Z,4.27
2019-05-19T12:28:47.165Z,5.43
2019-05-19T12:29:50.087Z,5.10
2019-05-19T12:30:53.003Z,4.53
2019-05-19T12:31:55.913Z,4.10
2019-05-19T12:32:59.471Z,4.93
2019-05-19T12:34:02.525Z,4.20
2019-05-19T12:35:05.707Z,4.23
2019-05-19T12:36:08.630Z,4.63
2019-05-19T12:37:11.617Z,4.43
2019-05-19T12:38:14.549Z,4.70
2019-05-19T12:39:17.521Z,4.30
2019-05-19T12:40:22.601Z,4.63
2019-05-19T12:41:25.253Z,5.07
2019-05-19T12:42:28.153Z,4.10
2019-05-19T12:43:31.068Z,4.67
2019-05-19T12:44:36.982Z,4.57
2019-05-19T12:45:40.223Z,4.70
2019-05-19T12:46:43.137Z,3.90
2019-05-19T12:47:46.075Z,4.37
2019-05-19T12:48:49.163Z,3.80
2019-05-19T12:49:52.105Z,4.43
2019-05-19T12:50:55.017Z,4.00
2019-05-19T12:51:57.951Z,4.13
2019-05-19T12:53:01.384Z,3.93
2019-05-19T12:54:05.653Z,4.03
2019-05-19T12:55:13.842Z,4.33
2019-05-19T12:56:16.754Z,4.53
2019-05-19T12:57:21.334Z,4.53
2019-05-19T12:58:24.338Z,4.40
2019-05-19T12:59:27.302Z,4.03
2019-05-19T13:00:30.333Z,4.50
2019-05-19T13:01:33.260Z,4.20
2019-05-19T13:02:38.068Z,4.27
2019-05-19T13:03:40.999Z,4.17
2019-05-19T13:04:44.076Z,4.13
2019-05-19T13:05:47.189Z,4.30
2019-05-19T13:06:50.146Z,4.00
2019-05-19T13:07:53.113Z,4.13
2019-05-19T13:08:56.140Z,4.00
2019-05-19T13:09:59.008Z,3.87
2019-05-19T13:11:01.990Z,4.47
2019-05-19T13:12:04.961Z,4.40
2019-05-19T13:13:07.865Z,4.30
2019-05-19T13:14:10.842Z,3.80
2019-05-19T13:15:15.562Z,3.97
2019-05-19T13:16:18.701Z,4.00
2019-05-19T13:17:21.656Z,4.00
2019-05-19T13:18:24.714Z,3.73
2019-05-19T13:19:27.646Z,4.43
2019-05-19T13:20:30.591Z,4.10
2019-05-19T13:21:33.590Z,4.00
2019-05-19T13:22:36.577Z,4.20
2019-05-19T13:23:39.497Z,3.40
2019-05-19T13:24:42.472Z,3.73
2019-05-19T13:25:45.523Z,3.80
2019-05-19T13:26:56.424Z,3.40
2019-05-19T13:27:53.219Z,3.90
2019-05-19T13:28:56.174Z,3.73
2019-05-19T13:29:59.095Z,3.30
2019-05-19T13:31:02.855Z,3.20
2019-05-19T13:32:06.792Z,3.50
2019-05-19T13:33:09.718Z,3.30
2019-05-19T13:34:12.544Z,3.13
2019-05-19T13:35:15.581Z,3.37
2019-05-19T13:36:18.624Z,3.00
2019-05-19T13:37:21.603Z,3.80
2019-05-19T13:38:24.553Z,3.80
2019-05-19T13:39:27.480Z,3.83
2019-05-19T13:40:33.311Z,4.10
2019-05-19T13:41:36.221Z,3.77
2019-05-19T13:42:39.206Z,3.80